createdAt,value
2023-04-19T00:00:23.204Z,22.00
2023-04-19T00:02:58.114Z,22.77
2023-04-19T00:05:29.156Z,22.40
2023-04-19T00:08:04.553Z,21.80
2023-04-19T00:10:39.399Z,22.47
2023-04-19T00:13:09.419Z,22.70
2023-04-19T00:15:42.578Z,23.57
2023-04-19T00:18:23.356Z,22.53
2023-04-19T00:20:52.189Z,23.30
2023-04-19T00:23:22.716Z,23.00
2023-04-19T00:25:51.701Z,23.40
2023-04-19T00:28:23.424Z,22.53
2023-04-19T00:31:08.947Z,21.87
2023-04-19T00:33:50.513Z,21.53
2023-04-19T00:36:22.684Z,21.70
2023-04-19T00:38:52.431Z,21.53
2023-04-19T00:41:27.390Z,21.03
2023-04-19T00:43:56.517Z,21.00
2023-04-19T00:46:25.502Z,21.40
2023-04-19T00:48:58.368Z,20.37
2023-04-19T00:51:29.050Z,20.93
2023-04-19T00:53:59.683Z,20.50
2023-04-19T00:56:28.723Z,21.00
2023-04-19T00:58:58.551Z,20.97
2023-04-19T01:01:44.660Z,20.20
2023-04-19T01:04:25.743Z,20.80
2023-04-19T01:06:59.574Z,21.20
2023-04-19T01:09:29.747Z,20.80
2023-04-19T01:11:59.395Z,20.60
2023-04-19T01:14:27.709Z,21.03
2023-04-19T01:17:03.622Z,20.47
2023-04-19T01:19:35.018Z,21.53
2023-04-19T01:22:04.304Z,21.07
2023-04-19T01:24:39.564Z,21.00
2023-04-19T01:27:12.071Z,20.60
2023-04-19T01:29:40.768Z,20.20
2023-04-19T01:32:09.137Z,20.53
2023-04-19T01:34:38.034Z,21.23
2023-04-19T01:37:17.536Z,20.40
2023-04-19T01:39:55.657Z,21.40
2023-04-19T01:42:24.573Z,20.40
2023-04-19T01:45:12.376Z,21.07
2023-04-19T01:47:44.326Z,20.40
2023-04-19T01:50:15.768Z,21.20
2023-04-19T01:52:44.068Z,20.20
2023-04-19T01:55:14.098Z,20.30
2023-04-19T01:57:42.552Z,21.63
2023-04-19T02:00:12.913Z,22.20
2023-04-19T02:02:44.703Z,20.60
2023-04-19T02:05:13.493Z,21.03
2023-04-19T02:07:43.818Z,21.57
2023-04-19T02:10:14.332Z,20.70
2023-04-19T02:12:45.400Z,20.60
2023-04-19T02:15:17.140Z,22.77
2023-04-19T02:17:53.060Z,20.23
2023-04-19T02:20:24.535Z,21.07
2023-04-19T02:22:52.835Z,20.80
2023-04-19T02:25:23.128Z,20.00
2023-04-19T02:27:51.780Z,21.30
2023-04-19T02:30:38.694Z,21.93
2023-04-19T02:33:07.803Z,22.43
2023-04-19T02:35:43.380Z,22.10
2023-04-19T02:38:15.245Z,21.60
2023-04-19T02:40:45.424Z,22.10
2023-04-19T02:43:13.880Z,21.20
2023-04-19T02:45:45.225Z,21.43
2023-04-19T02:48:17.493Z,20.50
2023-04-19T02:50:46.579Z,22.10
2023-04-19T02:53:15.357Z,22.30
2023-04-19T02:55:45.779Z,21.90
2023-04-19T02:58:23.049Z,22.23
2023-04-19T03:01:07.603Z,21.40
2023-04-19T03:03:39.710Z,21.57
2023-04-19T03:06:14.584Z,22.37
2023-04-19T03:08:43.103Z,21.73
2023-04-19T03:11:18.547Z,22.87
2023-04-19T03:13:53.515Z,24.20
2023-04-19T03:16:22.041Z,24.50
2023-04-19T03:18:50.372Z,24.33
2023-04-19T03:21:22.092Z,23.00
2023-04-19T03:23:54.377Z,23.97
2023-04-19T03:26:24.531Z,24.47
2023-04-19T03:28:55.174Z,22.00
2023-04-19T03:31:58.908Z,22.73
2023-04-19T03:34:34.855Z,24.40
2023-04-19T03:37:26.004Z,23.73
2023-04-19T03:39:54.958Z,22.27
2023-04-19T03:42:51.237Z,24.37
2023-04-19T03:45:27.628Z,24.77
2023-04-19T03:47:56.144Z,23.47
2023-04-19T03:50:25.509Z,24.20
2023-04-19T03:52:56.543Z,25.83
2023-04-19T03:55:42.135Z,25.40
2023-04-19T03:58:15.594Z,24.80
2023-04-19T04:00:52.178Z,24.23
2023-04-19T04:03:21.188Z,23.77
2023-04-19T04:05:57.529Z,23.37
2023-04-19T04:08:25.926Z,24.13
2023-04-19T04:10:55.961Z,23.63
2023-04-19T04:13:30.748Z,22.73
2023-04-19T04:16:35.280Z,22.50
2023-04-19T04:19:04.803Z,24.13
2023-04-19T04:21:44.882Z,22.70
2023-04-19T04:24:38.394Z,22.07
2023-04-19T04:27:21.809Z,20.63
2023-04-19T04:29:58.950Z,21.37
2023-04-19T04:32:27.352Z,21.30
2023-04-19T04:35:00.725Z,22.70
2023-04-19T04:37:40.291Z,20.70
2023-04-19T04:41:00.491Z,21.20
2023-04-19T04:43:33.286Z,21.90
2023-04-19T04:46:04.373Z,20.20
2023-04-19T04:48:38.079Z,19.93
2023-04-19T04:51:07.662Z,23.47
2023-04-19T04:53:37.049Z,21.10
2023-04-19T04:56:10.678Z,22.40
2023-04-19T04:58:43.057Z,22.20
2023-04-19T05:01:19.895Z,19.93
2023-04-19T05:03:49.716Z,21.57
2023-04-19T05:06:20.702Z,20.27
2023-04-19T05:08:49.414Z,18.57
2023-04-19T05:11:32.578Z,19.27
2023-04-19T05:14:01.081Z,18.23
2023-04-19T05:16:31.572Z,18.33
2023-04-19T05:18:59.944Z,19.93
2023-04-19T05:21:31.104Z,19.30
2023-04-19T05:23:59.444Z,18.83
2023-04-19T05:26:28.772Z,19.33
2023-04-19T05:28:57.695Z,17.93
2023-04-19T05:31:50.901Z,17.87
2023-04-19T05:34:45.486Z,17.67
2023-04-19T05:37:16.716Z,18.43
2023-04-19T05:39:45.157Z,18.03
2023-04-19T05:42:26.670Z,18.20
2023-04-19T05:44:55.368Z,17.60
2023-04-19T05:47:25.639Z,17.53
2023-04-19T05:50:20.700Z,17.63
2023-04-19T05:53:21.065Z,17.37
2023-04-19T05:55:51.032Z,18.13
2023-04-19T05:58:19.606Z,16.07
2023-04-19T06:00:49.153Z,18.30
2023-04-19T06:03:21.918Z,16.40
2023-04-19T06:05:51.015Z,17.47
2023-04-19T06:08:19.713Z,17.80
2023-04-19T06:10:54.719Z,18.30
2023-04-19T06:13:25.577Z,16.50
2023-04-19T06:15:55.679Z,17.23
2023-04-19T06:18:25.366Z,18.00
2023-04-19T06:20:54.609Z,17.83
2023-04-19T06:23:23.759Z,18.40
2023-04-19T06:25:55.541Z,17.40
2023-04-19T06:28:23.715Z,17.70
2023-04-19T06:30:52.456Z,18.30
2023-04-19T06:33:21.058Z,17.60
2023-04-19T06:35:50.668Z,16.70
2023-04-19T06:38:18.890Z,17.50
2023-04-19T06:40:47.189Z,17.90
2023-04-19T06:43:15.789Z,17.60
2023-04-19T06:45:44.000Z,17.80
2023-04-19T06:48:12.381Z,18.17
2023-04-19T06:50:41.172Z,17.80
2023-04-19T06:53:11.381Z,17.30
2023-04-19T06:55:39.920Z,17.40
2023-04-19T06:58:50.464Z,16.90
2023-04-19T07:01:19.083Z,17.20
2023-04-19T07:03:47.554Z,17.27
2023-04-19T07:06:15.898Z,18.47
2023-04-19T07:08:50.096Z,17.30
2023-04-19T07:11:22.441Z,18.70
2023-04-19T07:13:52.234Z,17.67
2023-04-19T07:16:21.614Z,18.00
2023-04-19T07:18:55.138Z,19.13
2023-04-19T07:21:26.494Z,18.63
2023-04-19T07:23:56.395Z,17.73
2023-04-19T07:26:24.604Z,18.23
2023-04-19T07:28:52.803Z,17.10
2023-04-19T07:31:21.402Z,18.60
2023-04-19T07:33:49.713Z,18.03
2023-04-19T07:36:18.080Z,16.40
2023-04-19T07:38:46.349Z,17.23
2023-04-19T07:41:31.694Z,18.00
2023-04-19T07:44:00.061Z,18.57
2023-04-19T07:46:28.755Z,17.20
2023-04-19T07:48:56.994Z,18.00
2023-04-19T07:51:26.254Z,18.67
2023-04-19T07:53:54.653Z,19.30
2023-04-19T07:56:26.430Z,19.10
2023-04-19T07:59:06.750Z,18.00
2023-04-19T08:01:37.142Z,18.70
2023-04-19T08:04:05.695Z,18.77
2023-04-19T08:06:37.949Z,18.40
2023-04-19T08:09:06.883Z,18.27
2023-04-19T08:11:36.449Z,18.77
2023-04-19T08:14:28.436Z,18.73
2023-04-19T08:19:23.840Z,18.80
2023-04-19T08:21:54.213Z,17.30
2023-04-19T08:24:24.499Z,18.40
2023-04-19T08:26:54.799Z,18.70
2023-04-19T08:29:23.181Z,19.20
2023-04-19T08:31:51.505Z,18.67
2023-04-19T08:34:21.928Z,17.93
2023-04-19T08:37:00.062Z,17.70
2023-04-19T08:39:33.593Z,18.30
2023-04-19T08:42:13.342Z,19.27
2023-04-19T08:45:13.590Z,18.43
2023-04-19T08:47:56.219Z,18.17
2023-04-19T08:50:34.397Z,18.30
2023-04-19T08:53:23.904Z,19.20
2023-04-19T08:58:50.264Z,19.07
2023-04-19T09:04:03.281Z,17.87
2023-04-19T09:06:38.032Z,18.60
2023-04-19T09:09:33.440Z,18.70
2023-04-19T09:12:03.851Z,18.90
2023-04-19T09:14:33.583Z,19.20
2023-04-19T09:17:18.104Z,20.10
2023-04-19T09:19:50.266Z,19.43
2023-04-19T09:22:19.228Z,19.20
2023-04-19T09:27:28.119Z,20.40
2023-04-19T09:29:58.801Z,19.43
2023-04-19T09:32:27.920Z,20.03
2023-04-19T09:34:58.599Z,20.03
2023-04-19T09:37:56.830Z,19.20
2023-04-19T09:40:28.158Z,19.80
2023-04-19T09:45:40.249Z,19.60
2023-04-19T09:48:09.064Z,19.20
2023-04-19T09:50:53.576Z,18.53
2023-04-19T09:53:25.444Z,18.33
2023-04-19T09:56:01.415Z,18.60
2023-04-19T09:58:46.101Z,19.60
2023-04-19T10:01:22.175Z,19.83
2023-04-19T10:03:53.084Z,20.80
2023-04-19T10:08:57.858Z,18.47
2023-04-19T10:11:27.841Z,18.40
2023-04-19T10:14:02.510Z,19.60
2023-04-19T10:16:33.321Z,19.00
2023-04-19T10:19:03.651Z,19.60
2023-04-19T10:21:32.783Z,18.50
2023-04-19T10:24:01.417Z,18.80
2023-04-19T10:26:30.002Z,19.83
2023-04-19T10:28:58.616Z,18.93
2023-04-19T10:31:28.881Z,19.63
2023-04-19T10:34:01.034Z,18.50
2023-04-19T10:36:29.976Z,19.30
2023-04-19T10:38:58.150Z,19.33
2023-04-19T10:41:58.658Z,19.57
2023-04-19T10:44:26.860Z,18.87
2023-04-19T10:46:55.090Z,19.20
2023-04-19T10:49:29.255Z,19.20
2023-04-19T10:51:58.141Z,19.20
2023-04-19T10:54:31.559Z,19.37
2023-04-19T10:57:10.659Z,18.13
2023-04-19T10:59:40.451Z,19.20
2023-04-19T11:02:29.436Z,20.20
2023-04-19T11:05:06.040Z,19.63
2023-04-19T11:07:41.681Z,19.47
2023-04-19T11:10:13.841Z,19.40
2023-04-19T11:12:46.247Z,19.47
2023-04-19T11:15:16.098Z,19.40
2023-04-19T11:18:11.268Z,19.77
2023-04-19T11:20:45.426Z,19.57
2023-04-19T11:23:30.418Z,19.43
2023-04-19T11:25:58.959Z,20.03
2023-04-19T11:28:38.253Z,19.97
2023-04-19T11:31:07.042Z,19.67
2023-04-19T11:33:52.626Z,19.40
2023-04-19T11:36:22.431Z,18.47
2023-04-19T11:38:51.631Z,19.70
2023-04-19T11:41:20.256Z,19.60
2023-04-19T11:43:50.833Z,18.37
2023-04-19T11:46:22.839Z,19.63
2023-04-19T11:48:55.749Z,19.00
2023-04-19T11:51:26.392Z,19.30
2023-04-19T11:53:56.927Z,19.20
2023-04-19T11:56:25.208Z,18.00
2023-04-19T11:58:58.393Z,18.43
2023-04-19T12:01:26.658Z,19.03
2023-04-19T12:03:56.806Z,19.03
2023-04-19T12:06:28.591Z,19.50
2023-04-19T12:08:58.016Z,24.40
2023-04-19T12:11:28.060Z,19.97
2023-04-19T12:14:09.523Z,19.47
2023-04-19T12:16:37.766Z,19.90
2023-04-19T12:19:14.288Z,19.80
2023-04-19T12:21:47.469Z,19.87
2023-04-19T12:24:17.580Z,19.37
2023-04-19T12:26:59.101Z,20.40
2023-04-19T12:29:31.295Z,19.10
2023-04-19T12:31:59.632Z,19.23
2023-04-19T12:34:28.174Z,20.70
2023-04-19T12:36:58.015Z,19.70
2023-04-19T12:39:26.488Z,18.60
2023-04-19T12:41:54.732Z,19.40
2023-04-19T12:44:23.326Z,20.83
2023-04-19T12:46:52.113Z,20.17
2023-04-19T12:49:21.136Z,19.87
2023-04-19T12:51:49.327Z,19.80
2023-04-19T12:54:18.914Z,20.00
2023-04-19T12:56:47.178Z,20.30
2023-04-19T12:59:15.626Z,20.33
2023-04-19T13:01:44.256Z,21.27
2023-04-19T13:04:12.596Z,20.90
2023-04-19T13:06:41.249Z,20.40
2023-04-19T13:11:41.937Z,21.03
2023-04-19T13:14:10.143Z,23.10
2023-04-19T13:16:38.610Z,21.70
2023-04-19T13:19:06.950Z,21.40
2023-04-19T13:21:35.494Z,21.30
2023-04-19T13:24:03.852Z,21.67
2023-04-19T13:26:34.089Z,21.23
2023-04-19T13:29:03.848Z,20.10
2023-04-19T13:31:32.439Z,19.80
2023-04-19T13:34:01.027Z,19.83
2023-04-19T13:36:29.450Z,20.43
2023-04-19T13:38:57.643Z,20.10
2023-04-19T13:41:26.195Z,20.30
2023-04-19T13:43:54.456Z,20.60
2023-04-19T13:46:24.149Z,19.83
2023-04-19T13:48:52.389Z,20.23
2023-04-19T13:51:21.592Z,20.63
2023-04-19T13:53:49.764Z,19.90
2023-04-19T13:56:18.325Z,21.90
2023-04-19T13:58:47.037Z,20.80
2023-04-19T14:01:15.709Z,20.83
2023-04-19T14:03:45.609Z,20.17
2023-04-19T14:06:14.222Z,20.20
2023-04-19T14:08:42.642Z,21.23
2023-04-19T14:11:13.379Z,21.17
2023-04-19T14:13:41.703Z,21.07
2023-04-19T14:16:10.253Z,21.20
2023-04-19T14:18:38.680Z,20.60
2023-04-19T14:21:08.586Z,19.87
2023-04-19T14:23:36.826Z,20.20
2023-04-19T14:26:05.093Z,19.73
2023-04-19T14:28:33.462Z,19.83
2023-04-19T14:31:01.586Z,21.30
2023-04-19T14:33:29.835Z,19.83
2023-04-19T14:39:48.952Z,19.90
2023-04-19T14:42:20.095Z,21.50
2023-04-19T14:44:52.170Z,20.10
2023-04-19T14:47:21.438Z,18.67
2023-04-19T14:49:52.446Z,18.07
2023-04-19T14:52:21.345Z,19.03
2023-04-19T14:54:52.910Z,18.00
2023-04-19T14:57:24.793Z,18.97
2023-04-19T14:59:58.326Z,19.00
2023-04-19T15:02:27.422Z,18.90
2023-04-19T15:04:56.580Z,18.90
2023-04-19T15:07:26.803Z,19.10
2023-04-19T15:09:56.563Z,18.60
2023-04-19T15:12:24.853Z,19.20
2023-04-19T15:14:53.086Z,18.57
2023-04-19T15:17:21.359Z,18.97
2023-04-19T15:19:49.663Z,19.30
2023-04-19T15:22:18.014Z,20.07
2023-04-19T15:24:46.348Z,19.00
2023-04-19T15:27:16.369Z,19.87
2023-04-19T15:29:44.698Z,19.50
2023-04-19T15:32:12.862Z,19.53
2023-04-19T15:34:40.985Z,19.30
2023-04-19T15:37:11.438Z,19.20
2023-04-19T15:39:39.684Z,18.93
2023-04-19T15:42:08.005Z,19.70
2023-04-19T15:44:37.806Z,19.40
2023-04-19T15:50:16.845Z,19.77
2023-04-19T15:52:45.221Z,19.73
2023-04-19T15:55:14.321Z,18.40
2023-04-19T15:57:47.508Z,19.90
2023-04-19T16:00:18.750Z,18.17
2023-04-19T16:02:48.163Z,20.50
2023-04-19T16:05:23.265Z,18.87
2023-04-19T16:08:03.770Z,19.87
2023-04-19T16:10:32.672Z,20.47
2023-04-19T16:13:04.821Z,18.80
2023-04-19T16:16:21.844Z,18.23
2023-04-19T16:25:27.207Z,18.57
2023-04-19T16:28:15.199Z,18.23
2023-04-19T16:30:43.742Z,18.10
2023-04-19T16:33:13.038Z,18.77
2023-04-19T16:35:41.603Z,18.90
2023-04-19T16:38:11.683Z,19.30
2023-04-19T16:40:40.006Z,19.13
2023-04-19T16:43:08.241Z,20.37
2023-04-19T16:45:37.199Z,19.00
2023-04-19T16:48:06.008Z,18.97
2023-04-19T16:50:36.066Z,17.87
2023-04-19T16:53:05.082Z,19.00
2023-04-19T16:55:36.252Z,18.97
2023-04-19T16:58:04.798Z,20.03
2023-04-19T17:00:33.653Z,21.17
2023-04-19T17:03:02.561Z,18.60
2023-04-19T17:05:31.005Z,20.17
2023-04-19T17:07:59.429Z,17.73
2023-04-19T17:10:28.682Z,17.30
2023-04-19T17:12:58.719Z,18.33
2023-04-19T17:15:27.754Z,20.10
2023-04-19T17:17:57.599Z,18.50
2023-04-19T17:20:26.640Z,18.83
2023-04-19T17:22:56.310Z,18.80
2023-04-19T17:25:36.911Z,18.43
2023-04-19T17:28:49.714Z,19.07
2023-04-19T17:31:25.760Z,18.70
2023-04-19T17:33:54.988Z,18.27
2023-04-19T17:36:26.931Z,18.00
2023-04-19T17:38:55.512Z,18.00
2023-04-19T17:41:23.976Z,18.60
2023-04-19T17:43:53.211Z,18.80
2023-04-19T17:46:24.035Z,19.70
2023-04-19T17:48:52.831Z,18.90
2023-04-19T17:51:21.549Z,20.60
2023-04-19T17:53:50.622Z,19.50
2023-04-19T17:56:19.488Z,20.40
2023-04-19T17:58:48.088Z,16.93
2023-04-19T18:01:17.233Z,19.43
2023-04-19T18:03:47.651Z,18.40
2023-04-19T18:06:31.855Z,18.13
2023-04-19T18:09:00.649Z,19.00
2023-04-19T18:11:29.704Z,19.47
2023-04-19T18:14:17.424Z,19.90
2023-04-19T18:16:46.108Z,23.10
2023-04-19T18:19:17.252Z,19.50
2023-04-19T18:21:45.800Z,19.40
2023-04-19T18:24:15.801Z,19.80
2023-04-19T18:26:45.433Z,19.57
2023-04-19T18:29:16.548Z,20.20
2023-04-19T18:32:09.185Z,20.10
2023-04-19T18:34:56.484Z,19.13
2023-04-19T18:37:26.468Z,19.60
2023-04-19T18:39:58.834Z,31.53
2023-04-19T18:42:35.400Z,23.73
2023-04-19T18:45:04.692Z,22.83
2023-04-19T18:47:33.445Z,21.00
2023-04-19T18:50:05.013Z,19.80
2023-04-19T18:52:42.356Z,20.00
2023-04-19T18:55:16.567Z,20.07
2023-04-19T18:57:48.766Z,19.70
2023-04-19T19:00:21.907Z,20.10
2023-04-19T19:02:51.138Z,19.87
2023-04-19T19:05:21.717Z,18.70
2023-04-19T19:07:50.394Z,19.70
2023-04-19T19:10:22.453Z,20.13
2023-04-19T19:12:54.966Z,21.50
2023-04-19T19:15:23.262Z,21.63
2023-04-19T19:17:51.680Z,20.30
2023-04-19T19:23:14.606Z,19.83
2023-04-19T19:25:43.084Z,21.30
2023-04-19T19:28:11.483Z,20.80
2023-04-19T19:30:42.934Z,21.70
2023-04-19T19:33:11.424Z,22.53
2023-04-19T19:35:44.475Z,22.60
2023-04-19T19:38:14.482Z,21.73
2023-04-19T19:41:24.609Z,21.60
2023-04-19T19:43:40.220Z,21.97
2023-04-19T19:46:10.660Z,23.70
2023-04-19T19:48:42.537Z,23.30
2023-04-19T19:51:44.302Z,21.43
2023-04-19T19:58:20.654Z,21.63
2023-04-19T20:03:28.253Z,20.37
2023-04-19T20:09:16.530Z,19.77
2023-04-19T20:11:53.267Z,21.07
2023-04-19T20:14:33.092Z,20.80
2023-04-19T20:17:03.206Z,19.43
2023-04-19T20:19:45.722Z,19.50
2023-04-19T20:22:33.897Z,20.33
2023-04-19T20:25:11.488Z,20.50
2023-04-19T20:27:39.951Z,20.50
2023-04-19T20:33:36.549Z,19.40
2023-04-19T20:36:09.629Z,19.77
2023-04-19T20:38:40.719Z,19.93
2023-04-19T20:41:34.228Z,20.43
2023-04-19T20:48:05.792Z,17.90
2023-04-19T20:54:20.429Z,20.10
2023-04-19T20:56:57.478Z,21.43
2023-04-19T20:59:38.583Z,22.00
2023-04-19T21:02:11.722Z,20.90
2023-04-19T21:04:42.591Z,20.80
2023-04-19T21:07:15.487Z,19.60
2023-04-19T21:09:59.840Z,20.83
2023-04-19T21:13:03.261Z,19.83
2023-04-19T21:21:57.717Z,20.23
2023-04-19T21:24:32.830Z,20.00
2023-04-19T21:27:05.368Z,21.10
2023-04-19T21:29:36.000Z,20.37
2023-04-19T21:32:04.313Z,20.03
2023-04-19T21:34:32.536Z,19.90
2023-04-19T21:37:05.601Z,20.30
2023-04-19T21:39:34.495Z,21.17
2023-04-19T21:42:02.795Z,19.73
2023-04-19T21:44:31.054Z,19.20
2023-04-19T21:47:03.626Z,19.00
2023-04-19T21:50:06.053Z,20.23
2023-04-19T21:52:38.117Z,19.37
2023-04-19T21:55:21.925Z,19.53
2023-04-19T21:58:04.156Z,19.10
2023-04-19T22:00:57.636Z,19.10
2023-04-19T22:03:27.488Z,19.60
2023-04-19T22:05:55.838Z,19.00
2023-04-19T22:08:24.252Z,19.10
2023-04-19T22:10:52.963Z,20.00
2023-04-19T22:13:22.204Z,19.40
2023-04-19T22:15:50.714Z,18.30
2023-04-19T22:23:59.190Z,19.47
2023-04-19T22:26:27.600Z,19.13
2023-04-19T22:28:55.938Z,20.50
2023-04-19T22:31:24.283Z,19.97
2023-04-19T22:34:00.408Z,19.73
2023-04-19T22:36:29.433Z,19.43
2023-04-19T22:38:59.483Z,20.17
2023-04-19T22:41:30.006Z,20.70
2023-04-19T22:43:58.583Z,22.17
2023-04-19T22:46:26.959Z,19.60
2023-04-19T22:48:56.240Z,18.90
2023-04-19T22:51:25.093Z,19.70
2023-04-19T22:54:00.569Z,19.13
2023-04-19T22:56:29.620Z,20.00
2023-04-19T22:58:58.064Z,19.73
2023-04-19T23:01:26.284Z,19.80
2023-04-19T23:03:54.566Z,18.73
2023-04-19T23:06:23.614Z,20.27
2023-04-19T23:08:52.382Z,20.10
2023-04-19T23:11:24.906Z,19.40
2023-04-19T23:13:59.407Z,19.20
2023-04-19T23:16:28.841Z,19.70
2023-04-19T23:19:00.661Z,19.40
2023-04-19T23:21:30.174Z,18.67
2023-04-19T23:23:58.569Z,19.47
2023-04-19T23:26:28.310Z,19.67
2023-04-19T23:28:56.622Z,19.40
2023-04-19T23:31:24.940Z,18.10
2023-04-19T23:33:53.353Z,19.43
2023-04-19T23:36:21.776Z,18.73
2023-04-19T23:38:50.081Z,19.67
2023-04-19T23:41:18.277Z,18.77
2023-04-19T23:43:48.226Z,18.70
2023-04-19T23:46:16.534Z,18.83
2023-04-19T23:48:44.792Z,18.70
2023-04-19T23:51:13.484Z,19.70
2023-04-19T23:53:41.824Z,18.47
2023-04-19T23:56:10.004Z,18.83
2023-04-19T23:58:38.252Z,18.77
